Details From SBSP - Sao Paulo Congonhas
To SBKP - Sao Paulo Viracopos
Flight Number -
Tags decoded
Created
Modified
Stats Distance 156 nm / 289 km
Max Altitude 0 ft / 0 m
Waypoints 6
Social Downloads 3
Likes 0
Share VATSIM

Download

Looking for another format? Having issues loading an existing format? Contact us
Advertisement - Login to hide

Notes

Requested: SBSP RDE SAT SJC BGC SBKP

Route

SBSP RDE SAT SJC BGC SBKP

ID Type Via Altitude Latitude Longitude Leg Dist Tot Dist Heading (true) Name
O SBSP APT - 0 ft / 0 m -23.62669˚ -46.65538˚ - 0 nm - Sao Paulo Congonhas
RDE VOR - 0 ft / 0 m -23.89100˚ -46.52817˚ 17 nm 17 nm 156° / 156° REDE VOR-DME
SAT NDB - 0 ft / 0 m -23.98333˚ -46.26333˚ 15 nm 32 nm 111° / 111° SANTOS NDB
SJC NDB - 0 ft / 0 m -23.24972˚ -45.86389˚ 49 nm 82 nm 27° / 26° SAO JOSE NDB
BGC NDB - 0 ft / 0 m -22.97079˚ -46.54779˚ 41 nm 123 nm 294° / 294° BRAGANCA NDB
O SBKP APT - 0 ft / 0 m -23.00738˚ -47.13452˚ 32 nm 155 nm 266° / 266° Sao Paulo Viracopos

Altitude Profile

Advertisement - Login to hide

SBSP

Details ICAO SBSP (CGH)
Name Sao Paulo Congonhas
Region Brazil
Timezone America/Sao_Paulo (UTC-3.0)
Stats Elevation 2,631 ft / 802 m (AMSL)
Location -23.626693° -46.655377°
Runways 2
Magnetic Variation 21.347° W

METAR

SBSP 210900Z 34002KT CAVOK 10/06 Q1018

Decode

TAF

TAF SBSP 210225Z 2106/2206 30003KT CAVOK TN08/2108Z TX20/2117Z BECMG 2108/2110 04003KT BECMG 2113/2115 27005KT FEW035 BECMG 2120/2122 20005KT CAVOK BECMG 2200/2202 17004KT RMK PGL

Decode

Departure Runways

ID Width Length Bearing (true) Bearing (mag) Surface Threshold Offset Overrun Length
17L 147 ft / 45 m 4,726 ft / 1,441 m 147.28° 168.63° Asphalt 0 ft / 0 m 220 ft / 67 m
17R 147 ft / 45 m 6,406 ft / 1,953 m 147.39° 168.74° Asphalt 413 ft / 126 m 0 ft / 0 m
35L 147 ft / 45 m 6,406 ft / 1,953 m 327.38° 348.73° Asphalt 200 ft / 61 m 0 ft / 0 m
35R 147 ft / 45 m 4,726 ft / 1,441 m 327.28° 348.63° Asphalt 0 ft / 0 m 0 ft / 0 m

SBKP

Details ICAO SBKP (VCP)
Name Sao Paulo Viracopos
Region Brazil
Timezone America/Sao_Paulo (UTC-3.0)
Stats Elevation 2,170 ft / 661 m (AMSL)
Location -23.007383° -47.134522°
Runways 1
Magnetic Variation 21.248° W

METAR

SBKP 210900Z 10005KT CAVOK 07/06 Q1018

Decode

TAF

TAF SBKP 210225Z 2106/2206 12005KT CAVOK TN08/2108Z TX20/2117Z BECMG 2108/2110 07005KT BECMG 2113/2115 26005KT FEW040 BECMG 2120/2122 20005KT CAVOK BECMG 2200/2202 14005KT RMK PGL

Decode

Destination Runways

ID Width Length Bearing (true) Bearing (mag) Surface Threshold Offset Overrun Length
15 148 ft / 45 m 10,639 ft / 3,243 m 127.91° 149.16° Asphalt 0 ft / 0 m 205 ft / 62 m
33 148 ft / 45 m 10,639 ft / 3,243 m 307.90° 329.15° Asphalt 0 ft / 0 m 205 ft / 62 m

Approach Navaids

Runway Type Ident Frequency Range Bearing (true) Bearing (mag) Slope Elevation
15 Localiser IKP 110.30 MHz 18 nm / 33 km 127.95° 149.20° - 2,170 ft / 661 m (AMSL)
15 Glidescope IKP 110.30 MHz 10 nm / 19 km 127.90° 149.15° 3.00° 2,170 ft / 661 m (AMSL)

Popular Alternatives